Time;durP1;ratioP1;P1;durP2;ratioP2;P2;SDS_P1;SDS_P2;PMS_P1;PMS_P2;Temp;Humidity;BMP_temperature;BMP_pressure;BME280_temperature;BME280_humidity;BME280_pressure;Samples;Min_cycle;Max_cycle;Signal;HPM_P1;HPM_P2
2023/09/15 00:01:37;;;;;;;24.90;8.80;;;;;;;17.46;65.08;99432.54;79729;1295;3011734;-73
2023/09/15 00:04:06;;;;;;;18.90;9.40;;;;;;;17.46;65.66;99435.88;78518;1298;3050559;-73
2023/09/15 00:06:35;;;;;;;22.20;10.90;;;;;;;17.52;65.64;99433.39;79825;1296;3013212;-74
2023/09/15 00:09:06;;;;;;;24.80;10.70;;;;;;;17.53;66.06;99436.13;79168;1296;3011919;-72
2023/09/15 00:11:40;;;;;;;27.50;11.20;;;;;;;17.50;66.58;99435.72;79474;1296;3012910;-74
2023/09/15 00:14:09;;;;;;;23.00;10.60;;;;;;;17.53;66.49;99437.17;78290;1300;3053448;-73
2023/09/15 00:16:38;;;;;;;19.10;9.30;;;;;;;17.54;67.21;99437.15;79684;1296;3014067;-74
2023/09/15 00:19:07;;;;;;;24.90;9.40;;;;;;;17.51;66.97;99434.02;78479;1296;3025139;-73
2023/09/15 00:21:33;;;;;;;18.50;9.40;;;;;;;17.52;67.92;99432.70;77489;1295;6093538;-74
2023/09/15 00:24:05;;;;;;;21.40;8.00;;;;;;;17.55;68.17;99429.44;79754;1296;3011882;-73
2023/09/15 00:26:33;;;;;;;21.00;8.30;;;;;;;18.40;66.61;99426.25;78498;1300;3051230;-73
2023/09/15 00:29:00;;;;;;;22.90;8.90;;;;;;;18.77;65.28;99427.71;79773;1298;3019176;-74
2023/09/15 00:31:27;;;;;;;18.50;8.30;;;;;;;18.82;64.71;99428.52;80013;1295;3011645;-75
2023/09/15 00:33:55;;;;;;;22.30;8.40;;;;;;;18.72;65.17;99428.02;78609;1294;3026241;-75
2023/09/15 00:36:22;;;;;;;21.20;9.60;;;;;;;18.68;65.12;99430.22;79999;1295;3013825;-77
2023/09/15 00:38:48;;;;;;;22.90;9.50;;;;;;;18.49;65.98;99432.20;79911;1295;3011365;-75
2023/09/15 00:41:17;;;;;;;24.80;10.50;;;;;;;18.41;66.11;99430.95;78718;1300;3028670;-76
2023/09/15 00:43:44;;;;;;;29.40;10.40;;;;;;;18.28;66.58;99434.29;79743;1300;3011639;-76
2023/09/15 00:46:11;;;;;;;26.00;11.20;;;;;;;18.15;67.59;99435.16;79696;1295;3013402;-75
2023/09/15 00:48:39;;;;;;;21.00;11.60;;;;;;;18.08;66.87;99435.13;78502;1296;3050493;-76
2023/09/15 00:51:07;;;;;;;31.30;11.60;;;;;;;18.01;68.12;99441.08;79913;1295;3013945;-75
2023/09/15 00:53:38;;;;;;;22.20;11.60;;;;;;;18.01;67.70;99438.90;79215;1295;3011521;-76
2023/09/15 00:56:06;;;;;;;23.20;9.70;;;;;;;17.97;68.63;99439.08;79759;1301;3013658;-76
2023/09/15 00:58:35;;;;;;;23.20;10.60;;;;;;;18.73;67.75;99441.41;79682;1295;3011663;-75
2023/09/15 01:01:06;;;;;;;26.80;11.80;;;;;;;19.23;65.46;99443.83;78353;1299;3052128;-76
2023/09/15 01:03:35;;;;;;;28.70;13.90;;;;;;;19.20;64.78;99444.98;79687;1295;3013616;-75
2023/09/15 01:06:03;;;;;;;30.60;13.80;;;;;;;19.05;64.73;99445.19;78477;1295;3051392;-76
2023/09/15 01:08:31;;;;;;;38.20;12.50;;;;;;;18.69;66.13;99444.25;79662;1295;3013346;-76
2023/09/15 01:11:01;;;;;;;34.70;14.90;;;;;;;18.59;65.88;99450.77;79616;1295;3011585;-75
2023/09/15 01:13:33;;;;;;;30.70;15.10;;;;;;;18.36;66.99;99447.41;78388;1301;3050486;-75
2023/09/15 01:16:13;;;;;;;;;;;;;;;18.25;67.20;99445.73;79646;1296;3011750;-76
2023/09/15 01:19:02;;;;;;;26.60;14.70;;;;;;;18.09;67.93;99441.36;78526;1300;3052598;-75
2023/09/15 01:22:08;;;;;;;31.40;13.90;;;;;;;18.06;67.92;99435.24;78528;1295;3068804;-77
2023/09/15 01:24:58;;;;;;;29.10;13.80;;;;;;;18.01;68.57;99437.38;78423;1295;3051190;-77
2023/09/15 01:28:03;;;;;;;33.30;15.80;;;;;;;17.97;68.83;99438.77;78521;1296;3057883;-77
2023/09/15 01:30:31;;;;;;;29.20;12.70;;;;;;;18.08;69.25;99439.18;78355;1299;3048719;-75
2023/09/15 01:32:58;;;;;;;25.00;12.00;;;;;;;18.68;68.20;99441.19;79692;1296;3013549;-76
2023/09/15 01:35:25;;;;;;;28.60;12.90;;;;;;;18.72;68.09;99441.38;79516;1300;3012804;-76
2023/09/15 01:37:53;;;;;;;28.70;13.20;;;;;;;18.68;68.10;99443.46;78441;1298;3053904;-77
2023/09/15 01:40:19;;;;;;;33.20;14.30;;;;;;;18.75;67.22;99449.58;79647;1298;3018680;-75
2023/09/15 01:42:48;;;;;;;29.40;14.60;;;;;;;18.66;67.38;99452.75;79716;1298;3011658;-75
2023/09/15 01:45:16;;;;;;;28.60;13.80;;;;;;;18.47;67.92;99455.77;78352;1296;3051870;-76
2023/09/15 01:47:43;;;;;;;32.20;13.90;;;;;;;18.42;67.86;99455.84;79699;1294;3014526;-75
2023/09/15 01:50:09;;;;;;;30.90;13.60;;;;;;;18.21;69.92;99454.30;79577;1301;3013458;-74
2023/09/15 01:52:37;;;;;;;22.50;13.40;;;;;;;18.15;69.49;99451.81;78340;1298;3026736;-75
2023/09/15 01:55:05;;;;;;;21.00;11.50;;;;;;;18.18;69.46;99449.09;79698;1295;3012951;-74
2023/09/15 01:57:32;;;;;;;24.60;11.20;;;;;;;18.73;68.97;99447.80;79578;1295;3011641;-78
2023/09/15 01:59:59;;;;;;;23.60;12.00;;;;;;;19.28;66.88;99450.02;78389;1295;3048879;-75
2023/09/15 02:02:26;;;;;;;25.20;11.70;;;;;;;19.32;66.67;99450.91;79742;1296;3013042;-74
2023/09/15 02:04:53;;;;;;;22.80;11.60;;;;;;;19.20;66.71;99448.71;79569;1295;3013955;-74
2023/09/15 02:07:22;;;;;;;28.70;12.50;;;;;;;19.07;67.15;99451.88;78517;1296;3026731;-75
2023/09/15 02:09:49;;;;;;;26.00;10.90;;;;;;;18.91;67.36;99450.07;79626;1298;3013541;-75
2023/09/15 02:12:15;;;;;;;22.60;11.90;;;;;;;18.77;68.64;99445.81;79697;1295;3013405;-78
2023/09/15 02:14:44;;;;;;;20.40;10.70;;;;;;;18.69;68.63;99443.29;78476;1301;3049553;-77
2023/09/15 02:17:15;;;;;;;25.80;12.90;;;;;;;18.60;69.75;99445.11;79825;1295;3013626;-77
2023/09/15 02:19:43;;;;;;;26.40;12.30;;;;;;;18.52;70.44;99445.04;78468;1300;3054069;-77
2023/09/15 02:22:11;;;;;;;23.80;9.60;;;;;;;18.45;71.52;99440.02;79742;1300;3013250;-77
2023/09/15 02:24:38;;;;;;;18.50;10.10;;;;;;;19.03;70.03;99437.15;79512;1300;3014106;-77
2023/09/15 02:27:06;;;;;;;22.10;11.40;;;;;;;19.62;68.13;99433.06;78465;1295;3057171;-75
2023/09/15 02:29:32;;;;;;;29.20;12.50;;;;;;;19.72;67.50;99431.59;79725;1294;3013121;-76
2023/09/15 02:31:59;;;;;;;23.30;13.00;;;;;;;19.60;67.85;99431.81;79723;1296;3011591;-76
2023/09/15 02:34:27;;;;;;;29.30;14.80;;;;;;;19.45;68.50;99426.18;78583;1295;3027169;-75
2023/09/15 02:36:53;;;;;;;30.10;15.50;;;;;;;19.31;68.76;99425.61;79655;1300;3013442;-76
2023/09/15 02:39:20;;;;;;;31.50;18.10;;;;;;;19.02;70.23;99436.59;79628;1296;3011415;-75
2023/09/15 02:41:48;;;;;;;22.80;13.60;;;;;;;18.89;70.14;99432.45;78337;1295;3027686;-76
2023/09/15 02:44:14;;;;;;;26.50;13.40;;;;;;;18.71;71.78;99425.80;79590;1296;3013756;-75
2023/09/15 02:46:41;;;;;;;30.30;18.70;;;;;;;18.67;71.47;99428.17;79742;1295;3011614;-76
2023/09/15 02:49:09;;;;;;;26.00;14.30;;;;;;;18.66;72.39;99432.42;78401;1297;3025844;-76
2023/09/15 02:51:37;;;;;;;31.50;14.50;;;;;;;19.12;72.17;99438.33;79571;1300;3013174;-76
2023/09/15 02:54:04;;;;;;;31.30;14.70;;;;;;;19.57;69.00;99437.79;79575;1295;3011642;-74
2023/09/15 02:56:32;;;;;;;29.00;14.30;;;;;;;19.55;68.65;99446.00;78371;1295;3058503;-75
2023/09/15 02:58:59;;;;;;;23.80;12.70;;;;;;;19.34;68.97;99445.34;79808;1300;3018322;-75
2023/09/15 03:01:25;;;;;;;25.50;13.80;;;;;;;19.17;69.62;99432.77;79623;1295;3011652;-75
2023/09/15 03:03:55;;;;;;;26.60;12.90;;;;;;;19.05;70.14;99431.32;78317;1300;3052328;-75
2023/09/15 03:06:22;;;;;;;28.20;13.70;;;;;;;18.84;71.92;99433.98;79644;1299;3012955;-75
2023/09/15 03:08:49;;;;;;;29.40;14.80;;;;;;;18.58;74.80;99435.23;79673;1295;3011665;-75
2023/09/15 03:11:17;;;;;;;28.70;15.80;;;;;;;18.48;74.52;99428.74;78314;1296;3055796;-75
2023/09/15 03:13:45;;;;;;;20.20;10.10;;;;;;;18.39;75.40;99423.88;79704;1296;3013420;-75
2023/09/15 03:16:12;;;;;;;23.40;9.90;;;;;;;18.95;73.64;99428.01;79559;1295;3014150;-75
2023/09/15 03:18:42;;;;;;;24.20;11.50;;;;;;;19.47;72.61;99429.89;78437;1300;3052326;-75
2023/09/15 03:21:09;;;;;;;23.60;12.50;;;;;;;19.54;72.22;99428.16;79764;1295;3011542;-75
2023/09/15 03:23:36;;;;;;;29.40;13.20;;;;;;;19.38;73.21;99428.08;79663;1295;3011619;-74
2023/09/15 03:26:04;;;;;;;30.50;14.90;;;;;;;19.12;74.29;99435.42;78408;1295;3055845;-75
2023/09/15 03:28:35;;;;;;;39.30;15.80;;;;;;;18.94;74.27;99433.44;79577;1295;3011526;-77
2023/09/15 03:31:06;;;;;;;36.10;17.10;;;;;;;18.70;75.54;99430.31;78529;1295;3027453;-77
2023/09/15 03:33:33;;;;;;;35.00;16.30;;;;;;;18.53;76.22;99429.33;79625;1295;3013738;-78
2023/09/15 03:36:02;;;;;;;33.20;11.30;;;;;;;18.42;75.89;99421.52;79175;1295;3013185;-75
2023/09/15 03:38:29;;;;;;;31.40;13.10;;;;;;;18.91;74.07;99412.42;79725;1300;3012941;-77
2023/09/15 03:40:56;;;;;;;33.20;14.60;;;;;;;19.39;73.05;99410.56;79692;1295;3011891;-77
2023/09/15 03:43:24;;;;;;;30.70;14.10;;;;;;;19.44;72.62;99419.21;78572;1295;3055700;-76
2023/09/15 03:45:51;;;;;;;38.80;14.40;;;;;;;19.25;72.89;99419.06;79707;1295;3019550;-77
2023/09/15 03:48:18;;;;;;;30.10;14.50;;;;;;;18.86;74.13;99420.16;79585;1295;3013732;-75
2023/09/15 03:50:47;;;;;;;34.10;14.60;;;;;;;18.50;76.65;99422.11;78350;1301;3053115;-76
2023/09/15 03:53:14;;;;;;;28.40;12.80;;;;;;;18.28;78.15;99429.00;79809;1301;3013361;-78
2023/09/15 03:55:41;;;;;;;22.00;10.40;;;;;;;18.14;78.87;99443.79;79744;1296;3011838;-76
2023/09/15 03:58:08;;;;;;;21.80;10.30;;;;;;;18.35;79.79;99467.14;78469;1295;3026745;-77
2023/09/15 04:00:35;;;;;;;19.90;10.40;;;;;;;18.73;77.79;99491.99;79744;1301;3018682;-76
2023/09/15 04:03:03;;;;;;;17.80;9.00;;;;;;;18.85;76.57;99506.30;79671;1295;3011468;-75
2023/09/15 04:05:32;;;;;;;18.20;9.40;;;;;;;18.74;75.75;99510.30;78561;1295;3053416;-76
2023/09/15 04:07:59;;;;;;;17.90;9.60;;;;;;;18.43;76.72;99506.89;79646;1301;3013566;-77
2023/09/15 04:10:26;;;;;;;24.10;8.90;;;;;;;17.84;80.67;99507.80;80948;1295;3011591;-76
2023/09/15 04:12:54;;;;;;;13.70;7.20;;;;;;;17.46;84.07;99495.40;80003;1295;3057125;-75
2023/09/15 04:15:21;;;;;;;15.10;7.60;;;;;;;17.58;85.07;99480.35;81290;1295;3013479;-76
2023/09/15 04:17:47;;;;;;;16.10;8.20;;;;;;;17.79;85.04;99477.41;80227;1295;3011677;-75
2023/09/15 04:20:15;;;;;;;19.60;9.30;;;;;;;17.57;86.34;99478.50;78632;1295;3025745;-77
2023/09/15 04:22:43;;;;;;;19.30;8.70;;;;;;;17.58;87.36;99467.21;79682;1295;3013422;-75
2023/09/15 04:25:13;;;;;;;15.50;9.20;;;;;;;17.48;88.14;99464.17;79577;1301;3011694;-75
2023/09/15 04:27:41;;;;;;;14.00;7.00;;;;;;;17.37;89.01;99467.29;78294;1301;3056350;-74
2023/09/15 04:30:08;;;;;;;13.10;7.00;;;;;;;17.90;88.29;99465.80;79683;1295;3012877;-76
2023/09/15 04:32:43;;;;;;;21.60;8.40;;;;;;;18.36;85.65;99460.73;78508;1295;3052222;-76
2023/09/15 04:35:12;;;;;;;16.40;9.60;;;;;;;18.38;85.21;99455.05;79849;1295;3013315;-75
2023/09/15 04:37:42;;;;;;;22.00;9.90;;;;;;;18.19;86.20;99451.44;78935;1301;3011775;-74
2023/09/15 04:40:09;;;;;;;18.20;9.50;;;;;;;17.90;87.99;99457.24;79766;1298;3013618;-74
2023/09/15 04:42:40;;;;;;;15.80;7.40;;;;;;;17.60;90.99;99456.61;79601;1299;3011711;-76
2023/09/15 04:45:08;;;;;;;13.80;7.00;;;;;;;18.05;90.04;99454.70;78524;1295;3050127;-74
2023/09/15 04:47:36;;;;;;;13.00;7.90;;;;;;;18.50;87.40;99447.45;79634;1298;3018630;-77
2023/09/15 04:50:11;;;;;;;19.00;9.20;;;;;;;18.40;86.38;99447.89;78359;1301;3054363;-73
2023/09/15 04:52:37;;;;;;;17.40;9.40;;;;;;;18.27;87.01;99444.52;79586;1298;3013019;-75
2023/09/15 04:55:05;;;;;;;14.70;8.60;;;;;;;17.95;88.78;99453.08;79550;1297;3011679;-75
2023/09/15 04:57:35;;;;;;;16.50;6.50;;;;;;;17.76;89.99;99453.42;78427;1300;3056084;-76
2023/09/15 05:00:04;;;;;;;12.50;6.90;;;;;;;18.17;88.79;99445.81;79747;1300;3013406;-75
2023/09/15 05:02:34;;;;;;;17.10;7.80;;;;;;;18.60;86.70;99438.73;78427;1298;3050580;-74
2023/09/15 05:05:01;;;;;;;11.20;7.20;;;;;;;18.59;85.94;99437.02;79872;1300;3013547;-75
2023/09/15 05:07:28;;;;;;;18.80;8.10;;;;;;;18.52;86.15;99437.89;79957;1296;3011471;-75
2023/09/15 05:09:56;;;;;;;14.50;8.50;;;;;;;18.38;86.91;99435.48;78709;1295;3051050;-74
2023/09/15 05:12:24;;;;;;;13.00;6.20;;;;;;;18.28;87.95;99433.77;79738;1295;3012952;-75
2023/09/15 05:14:51;;;;;;;11.60;6.10;;;;;;;18.75;87.25;99432.23;80026;1295;3011838;-78
2023/09/15 05:17:22;;;;;;;17.00;7.30;;;;;;;19.16;84.84;99435.98;79013;1295;3049865;-78
2023/09/15 05:19:51;;;;;;;14.10;7.50;;;;;;;19.24;84.33;99436.08;79931;1300;3011737;-79
2023/09/15 05:22:19;;;;;;;15.20;8.70;;;;;;;19.12;84.73;99433.15;78475;1296;3027146;-79
2023/09/15 05:24:46;;;;;;;15.70;9.20;;;;;;;19.01;85.11;99431.02;79824;1295;3019110;-78
2023/09/15 05:27:12;;;;;;;10.10;6.10;;;;;;;18.91;86.06;99435.27;79721;1295;3011639;-77
2023/09/15 05:29:40;;;;;;;11.60;6.40;;;;;;;19.35;84.69;99439.92;78499;1295;3025967;-78
2023/09/15 05:32:07;;;;;;;11.20;6.90;;;;;;;19.65;82.52;99445.02;79920;1298;3012862;-77
2023/09/15 05:34:34;;;;;;;14.20;7.00;;;;;;;19.56;82.72;99450.73;79831;1298;3011607;-77
2023/09/15 05:37:03;;;;;;;11.60;7.90;;;;;;;19.09;85.27;99454.48;78615;1298;3027025;-78
2023/09/15 05:39:33;;;;;;;16.40;8.60;;;;;;;18.70;87.10;99456.09;79874;1295;3013822;-76
2023/09/15 05:42:01;;;;;;;11.10;5.40;;;;;;;18.50;88.03;99453.66;78443;1295;3056098;-77
2023/09/15 05:44:27;;;;;;;11.40;6.50;;;;;;;18.81;86.18;99452.79;79891;1301;3018407;-79
2023/09/15 05:46:54;;;;;;;11.30;6.90;;;;;;;18.90;85.65;99454.41;79746;1296;3013724;-78
2023/09/15 05:49:22;;;;;;;11.10;7.40;;;;;;;18.90;85.19;99453.88;78542;1301;3026627;-76
2023/09/15 05:51:48;;;;;;;14.40;7.80;;;;;;;18.80;85.46;99453.90;79947;1301;3013269;-77
2023/09/15 05:54:15;;;;;;;13.80;8.40;;;;;;;18.67;86.34;99450.83;79953;1295;3011503;-79
2023/09/15 05:56:43;;;;;;;9.80;6.20;;;;;;;18.44;87.53;99452.31;78462;1295;3026488;-78
2023/09/15 05:59:09;;;;;;;9.90;6.80;;;;;;;18.44;88.38;99459.45;79759;1295;3013698;-76
2023/09/15 06:01:37;;;;;;;16.70;8.30;;;;;;;18.54;88.03;99461.84;79812;1297;3011663;-77
2023/09/15 06:04:07;;;;;;;15.00;8.60;;;;;;;18.72;87.49;99458.15;78872;1301;3052942;-79
2023/09/15 06:06:34;;;;;;;13.70;10.40;;;;;;;18.54;87.66;99462.39;79926;1301;3011745;-80
2023/09/15 06:09:03;;;;;;;15.90;9.70;;;;;;;18.14;90.56;99472.33;79204;1295;3013339;-71
2023/09/15 06:11:29;;;;;;;9.30;6.50;;;;;;;18.07;91.50;99470.45;79596;1298;3013306;-68
2023/09/15 06:13:57;;;;;;;11.80;7.70;;;;;;;18.45;90.35;99467.13;79707;1295;3011461;-70
2023/09/15 06:16:27;;;;;;;13.20;8.20;;;;;;;18.85;87.92;99462.13;78578;1295;3054123;-73
2023/09/15 06:18:53;;;;;;;11.80;9.20;;;;;;;18.72;88.00;99463.04;79876;1299;3012491;-72
2023/09/15 06:21:20;;;;;;;13.00;9.60;;;;;;;18.62;88.92;99459.81;79634;1301;3011695;-70
2023/09/15 06:23:47;;;;;;;13.90;9.60;;;;;;;18.58;89.45;99454.31;78484;1298;3026188;-69
2023/09/15 06:26:14;;;;;;;13.00;6.40;;;;;;;18.48;90.52;99453.92;79652;1300;3013390;-69
2023/09/15 06:28:41;;;;;;;9.40;6.40;;;;;;;18.92;88.94;99454.59;79630;1299;3011623;-68
2023/09/15 06:31:09;;;;;;;14.10;8.70;;;;;;;19.35;86.40;99451.88;78616;1295;3025742;-71
2023/09/15 06:33:35;;;;;;;12.00;8.50;;;;;;;19.37;86.12;99456.63;79595;1295;3013153;-71
2023/09/15 06:36:04;;;;;;;14.30;9.30;;;;;;;19.26;86.45;99453.24;79824;1300;3013237;-71
2023/09/15 06:38:32;;;;;;;12.10;8.70;;;;;;;19.13;87.22;99449.38;78451;1295;3070018;-74
2023/09/15 06:40:58;;;;;;;10.30;5.90;;;;;;;19.02;88.32;99445.98;79584;1295;3013442;-73
2023/09/15 06:43:25;;;;;;;8.40;6.00;;;;;;;19.53;86.83;99450.78;79894;1296;3012128;-77
2023/09/15 06:45:53;;;;;;;12.00;7.60;;;;;;;19.79;84.91;99455.85;78696;1295;3026939;-72
2023/09/15 06:48:21;;;;;;;11.10;8.30;;;;;;;19.75;84.97;99456.88;79956;1295;3013405;-74
2023/09/15 06:50:48;;;;;;;14.50;8.50;;;;;;;19.59;85.75;99451.15;79989;1295;3011567;-75
2023/09/15 06:53:16;;;;;;;15.20;10.10;;;;;;;19.46;86.81;99448.70;78519;1300;3069365;-71
2023/09/15 06:55:42;;;;;;;10.90;7.10;;;;;;;19.33;87.13;99445.14;79593;1295;3012836;-77
2023/09/15 06:58:09;;;;;;;13.30;6.80;;;;;;;19.68;86.67;99442.22;79568;1300;3011790;-72
2023/09/15 07:00:37;;;;;;;11.00;7.90;;;;;;;20.10;84.93;99442.14;78417;1295;3027712;-75
2023/09/15 07:03:03;;;;;;;12.00;8.30;;;;;;;20.13;84.58;99439.24;79750;1296;3012993;-71
2023/09/15 07:05:30;;;;;;;13.50;9.60;;;;;;;19.88;85.25;99446.55;79680;1295;3013042;-71
2023/09/15 07:07:59;;;;;;;13.70;9.80;;;;;;;19.51;86.91;99448.28;78728;1294;3025782;-70
2023/09/15 07:10:26;;;;;;;10.80;7.20;;;;;;;19.36;87.78;99448.23;79504;1295;3013828;-71
2023/09/15 07:12:52;;;;;;;11.90;7.30;;;;;;;19.65;86.50;99450.91;79663;1295;3011554;-70
2023/09/15 07:15:20;;;;;;;13.30;8.80;;;;;;;20.09;84.67;99449.22;78528;1298;3051524;-72
2023/09/15 07:17:48;;;;;;;13.40;9.00;;;;;;;19.99;84.11;99452.71;79836;1301;3014171;-70
2023/09/15 07:20:14;;;;;;;15.60;10.20;;;;;;;19.76;85.04;99450.92;79862;1301;3012041;-72
2023/09/15 07:22:42;;;;;;;16.00;11.00;;;;;;;19.57;86.43;99449.14;78456;1300;3069898;-71
2023/09/15 07:25:09;;;;;;;12.50;8.00;;;;;;;19.49;86.65;99446.09;79613;1298;3013144;-71
2023/09/15 07:27:35;;;;;;;10.90;7.70;;;;;;;19.85;85.38;99440.36;79715;1295;3011671;-72
2023/09/15 07:30:04;;;;;;;18.60;9.70;;;;;;;20.27;83.69;99440.79;78487;1295;3027331;-72
2023/09/15 07:32:33;;;;;;;17.80;11.20;;;;;;;20.15;84.02;99442.92;79873;1295;3013839;-72
2023/09/15 07:35:03;;;;;;;18.90;11.00;;;;;;;19.97;84.47;99448.92;79258;1298;3011633;-73
2023/09/15 07:37:30;;;;;;;18.80;11.40;;;;;;;19.66;85.94;99450.63;79661;1298;3012854;-72
2023/09/15 07:39:57;;;;;;;13.00;9.00;;;;;;;19.47;87.02;99443.75;79562;1300;3011412;-71
2023/09/15 07:42:25;;;;;;;13.50;8.90;;;;;;;19.79;85.75;99444.56;78619;1295;3056042;-73
2023/09/15 07:44:51;;;;;;;17.20;9.70;;;;;;;20.19;83.58;99434.30;79724;1294;3013397;-71
2023/09/15 07:47:18;;;;;;;17.90;10.30;;;;;;;20.18;83.40;99436.23;79878;1294;3011902;-69
2023/09/15 07:49:46;;;;;;;15.30;10.60;;;;;;;20.02;84.14;99431.60;78552;1295;3051918;-69
2023/09/15 07:52:13;;;;;;;15.70;10.90;;;;;;;19.78;85.01;99431.83;79763;1295;3012849;-68
2023/09/15 07:54:39;;;;;;;17.80;11.00;;;;;;;19.58;85.71;99428.66;79726;1299;3013239;-71
2023/09/15 07:57:07;;;;;;;14.50;8.50;;;;;;;19.49;86.80;99432.91;78396;1295;3026478;-73
2023/09/15 07:59:33;;;;;;;12.50;8.80;;;;;;;19.88;85.76;99436.84;79969;1295;3018419;-71
2023/09/15 08:02:00;;;;;;;17.60;10.30;;;;;;;20.24;84.64;99431.71;79560;1300;3012885;-69
2023/09/15 08:04:28;;;;;;;17.60;11.10;;;;;;;20.23;84.15;99433.42;78396;1299;3026602;-73
2023/09/15 08:06:55;;;;;;;14.10;10.80;;;;;;;19.85;84.78;99436.85;79620;1295;3013577;-74
2023/09/15 08:09:21;;;;;;;15.50;11.50;;;;;;;19.68;85.86;99438.67;79495;1295;3012014;-73
2023/09/15 08:11:50;;;;;;;15.90;10.80;;;;;;;19.42;86.91;99436.97;78521;1298;3027081;-73
2023/09/15 08:14:17;;;;;;;14.80;9.00;;;;;;;19.27;88.86;99434.83;79880;1298;3012468;-71
2023/09/15 08:16:43;;;;;;;13.70;9.50;;;;;;;19.71;87.80;99430.55;79871;1295;3011914;-73
2023/09/15 08:19:12;;;;;;;13.90;10.20;;;;;;;20.00;85.70;99426.80;78633;1300;3026030;-71
2023/09/15 08:21:39;;;;;;;13.20;10.30;;;;;;;20.01;84.89;99425.09;79870;1298;3013022;-70
2023/09/15 08:24:05;;;;;;;14.80;11.30;;;;;;;19.75;85.62;99425.06;79674;1300;3011745;-73
2023/09/15 08:26:33;;;;;;;15.30;12.10;;;;;;;19.44;87.02;99427.50;78310;1300;3057442;-73
2023/09/15 08:29:00;;;;;;;13.10;8.40;;;;;;;19.25;88.44;99426.18;79942;1297;3018479;-69
2023/09/15 08:31:28;;;;;;;16.30;10.00;;;;;;;19.66;87.67;99432.48;79696;1298;3011641;-71
2023/09/15 08:33:56;;;;;;;13.80;10.60;;;;;;;20.17;85.47;99426.73;78408;1300;3052126;-71
2023/09/15 08:36:25;;;;;;;17.10;12.60;;;;;;;20.27;84.42;99423.41;79535;1295;3018673;-70
2023/09/15 08:38:52;;;;;;;39.10;20.20;;;;;;;20.22;84.97;99425.52;79855;1295;3013704;-69
2023/09/15 08:41:23;;;;;;;27.50;16.60;;;;;;;20.07;85.21;99426.80;78568;1300;3055485;-68
2023/09/15 08:43:51;;;;;;;23.30;12.60;;;;;;;20.08;84.97;99431.38;79825;1300;3011668;-71
2023/09/15 08:46:19;;;;;;;24.10;12.80;;;;;;;20.44;83.93;99429.81;78442;1301;3027306;-71
2023/09/15 08:48:49;;;;;;;25.70;13.30;;;;;;;20.63;82.95;99431.10;79704;1299;3019030;-73
2023/09/15 08:51:18;;;;;;;23.70;14.60;;;;;;;20.52;82.87;99430.40;79088;1298;3011551;-71
2023/09/15 08:53:44;;;;;;;25.40;15.80;;;;;;;20.05;84.29;99431.10;79630;1298;3012903;-67
2023/09/15 08:56:11;;;;;;;24.40;16.50;;;;;;;19.94;85.32;99433.50;79528;1296;3011669;-74
2023/09/15 08:58:39;;;;;;;16.30;10.60;;;;;;;19.87;86.50;99434.32;78479;1296;3026749;-70
2023/09/15 09:01:07;;;;;;;17.20;11.60;;;;;;;20.28;85.04;99429.85;79587;1295;3013053;-70
2023/09/15 09:03:36;;;;;;;16.60;12.70;;;;;;;20.59;83.56;99429.92;79946;1300;3013400;-73
2023/09/15 09:06:05;;;;;;;18.80;13.80;;;;;;;20.62;82.95;99425.36;78556;1301;3052410;-71
2023/09/15 09:08:34;;;;;;;17.80;14.40;;;;;;;20.56;83.63;99427.89;80314;1300;3013230;-74
2023/09/15 09:11:03;;;;;;;19.00;13.90;;;;;;;20.52;83.76;99430.34;78846;1295;3026327;-70
2023/09/15 09:13:29;;;;;;;15.40;9.90;;;;;;;20.44;84.02;99429.68;80119;1295;3011557;-70
2023/09/15 09:15:56;;;;;;;14.80;11.40;;;;;;;20.96;81.66;99424.98;79586;1295;3012917;-73
2023/09/15 09:18:26;;;;;;;21.20;13.80;;;;;;;21.33;80.52;99422.05;78460;1302;3052731;-67
2023/09/15 09:20:52;;;;;;;16.80;13.70;;;;;;;21.18;80.88;99423.61;79694;1295;3012799;-71
2023/09/15 09:23:20;;;;;;;16.90;14.60;;;;;;;21.04;81.12;99422.58;79680;1300;3011676;-69
2023/09/15 09:25:48;;;;;;;18.30;15.50;;;;;;;20.93;81.29;99419.10;78557;1300;3067916;-70
2023/09/15 09:28:14;;;;;;;18.40;15.20;;;;;;;20.74;82.48;99420.02;79646;1296;3012679;-70
2023/09/15 09:30:41;;;;;;;14.40;10.30;;;;;;;20.63;83.01;99424.20;79787;1300;3011773;-68
2023/09/15 09:33:10;;;;;;;14.10;10.80;;;;;;;21.18;81.13;99427.55;78554;1295;3028550;-74
2023/09/15 09:35:36;;;;;;;18.10;13.40;;;;;;;21.65;79.41;99421.50;79848;1298;3012982;-68
2023/09/15 09:38:03;;;;;;;19.00;14.60;;;;;;;21.55;78.80;99419.58;79964;1300;3011689;-68
2023/09/15 09:40:32;;;;;;;17.60;14.90;;;;;;;21.47;79.21;99423.02;78927;1295;3068931;-71
2023/09/15 09:42:58;;;;;;;21.50;14.90;;;;;;;21.17;79.62;99424.21;79955;1295;3013098;-70
2023/09/15 09:45:30;;;;;;;19.10;14.90;;;;;;;20.91;80.07;99421.45;79840;1295;3011752;-66
2023/09/15 09:48:00;;;;;;;13.60;10.70;;;;;;;20.79;81.18;99426.29;78494;1296;3053640;-70
2023/09/15 09:50:26;;;;;;;17.80;12.70;;;;;;;21.10;80.93;99426.02;80166;1300;3012970;-71
2023/09/15 09:52:53;;;;;;;17.90;13.90;;;;;;;21.49;79.52;99421.92;79700;1300;3011953;-72
2023/09/15 09:55:24;;;;;;;20.50;16.80;;;;;;;21.60;78.25;99418.65;78586;1295;3068755;-72
2023/09/15 09:57:51;;;;;;;19.00;15.00;;;;;;;21.36;79.08;99417.48;79965;1296;3011393;-69
2023/09/15 10:00:22;;;;;;;19.00;14.90;;;;;;;21.13;80.24;99418.80;79141;1295;3011670;-69
2023/09/15 10:02:48;;;;;;;23.60;16.30;;;;;;;21.05;79.55;99416.42;79751;1295;3013233;-68
2023/09/15 10:05:15;;;;;;;13.60;10.00;;;;;;;20.93;81.25;99411.99;79540;1300;3013042;-72
2023/09/15 10:07:45;;;;;;;13.80;11.00;;;;;;;21.52;80.34;99412.04;78302;1300;3052327;-70
2023/09/15 10:10:12;;;;;;;20.50;14.00;;;;;;;22.03;78.21;99409.94;79693;1301;3012119;-68
2023/09/15 10:12:44;;;;;;;23.60;15.60;;;;;;;22.01;77.87;99411.08;78352;1300;3068520;-69
2023/09/15 10:15:10;;;;;;;20.40;16.00;;;;;;;21.87;77.96;99410.44;79550;1295;3013324;-65
2023/09/15 10:17:37;;;;;;;27.50;18.10;;;;;;;21.62;79.19;99410.45;79540;1301;3011640;-69
2023/09/15 10:20:06;;;;;;;21.90;17.60;;;;;;;21.33;80.73;99408.20;78259;1296;3029570;-73
2023/09/15 10:22:33;;;;;;;17.50;12.10;;;;;;;21.24;81.41;99409.41;79633;1301;3013231;-68
2023/09/15 10:25:00;;;;;;;21.10;15.20;;;;;;;21.63;80.01;99410.86;81990;1300;3011312;-69
2023/09/15 10:27:28;;;;;;;30.10;17.30;;;;;;;21.95;78.76;99410.84;80719;1295;3069074;-72
2023/09/15 10:30:04;;;;;;;24.20;18.90;;;;;;;21.93;79.17;99411.85;82013;1297;3012689;-69
2023/09/15 10:32:39;;;;;;;27.50;19.70;;;;;;;21.74;79.38;99407.02;80755;1295;3050526;-71
2023/09/15 10:35:08;;;;;;;25.50;21.00;;;;;;;21.50;80.74;99409.02;81451;1295;3011157;-69
2023/09/15 10:37:40;;;;;;;27.10;20.50;;;;;;;21.24;81.96;99411.80;82026;1295;3013360;-69
2023/09/15 10:40:10;;;;;;;23.90;14.50;;;;;;;21.21;81.36;99408.24;80776;1296;3052438;-69
2023/09/15 10:42:49;;;;;;;25.60;16.20;;;;;;;21.65;81.36;99409.41;81997;1298;3011512;-68
2023/09/15 10:45:17;;;;;;;28.40;17.80;;;;;;;21.94;79.71;99407.92;80743;1297;3068266;-68
2023/09/15 10:47:43;;;;;;;27.40;19.50;;;;;;;21.86;79.59;99408.36;82034;1295;3012715;-69
2023/09/15 10:50:10;;;;;;;32.10;20.40;;;;;;;21.65;79.88;99409.77;81851;1301;3011325;-71
2023/09/15 10:52:38;;;;;;;29.00;20.60;;;;;;;21.35;81.60;99408.63;80746;1295;3025949;-74
2023/09/15 10:55:05;;;;;;;26.40;20.90;;;;;;;21.16;82.52;99409.42;82037;1298;3012730;-71
2023/09/15 10:57:35;;;;;;;21.50;15.10;;;;;;;20.94;84.06;99408.69;81989;1299;3011219;-72
2023/09/15 11:00:07;;;;;;;25.60;16.20;;;;;;;21.43;83.14;99412.43;80722;1297;3068751;-70
2023/09/15 11:02:39;;;;;;;27.40;19.20;;;;;;;21.81;81.12;99410.84;81997;1295;3011342;-72
2023/09/15 11:05:07;;;;;;;27.10;20.60;;;;;;;22.00;79.77;99407.98;80756;1295;3055992;-73
2023/09/15 11:07:34;;;;;;;26.50;21.10;;;;;;;21.75;80.22;99406.56;81970;1295;3012429;-71
2023/09/15 11:10:02;;;;;;;29.00;22.80;;;;;;;21.42;81.54;99408.27;81978;1299;3011267;-73